Time;durP1;ratioP1;P1;durP2;ratioP2;P2;SDS_P1;SDS_P2;PMS_P1;PMS_P2;Temp;Humidity;BMP_temperature;BMP_pressure;BME280_temperature;BME280_humidity;BME280_pressure;Samples;Min_cycle;Max_cycle;Signal;HPM_P1;HPM_P2
2021/03/17 00:00:54;;;;;;;13.93;6.38;;;7.40;99.90;;;;;;5083253;28;20318;-78
2021/03/17 00:03:20;;;;;;;8.48;5.72;;;7.40;99.90;;;;;;5080207;28;20306;-78
2021/03/17 00:05:47;;;;;;;8.85;5.90;;;7.40;99.90;;;;;;5081798;28;20766;-77
2021/03/17 00:08:14;;;;;;;8.63;6.78;;;7.40;99.90;;;;;;5080837;28;20192;-77
2021/03/17 00:10:46;;;;;;;9.05;6.05;;;7.40;99.90;;;;;;5081640;28;20200;-78
2021/03/17 00:13:13;;;;;;;6.68;5.68;;;7.40;99.90;;;;;;5083390;28;20286;-77
2021/03/17 00:15:43;;;;;;;10.45;7.28;;;7.50;99.90;;;;;;5081255;28;20288;-78
2021/03/17 00:18:12;;;;;;;6.80;6.00;;;7.40;99.90;;;;;;5078778;28;20250;-78
2021/03/17 00:20:39;;;;;;;11.23;5.93;;;7.40;99.90;;;;;;5081712;28;20199;-78
2021/03/17 00:23:05;;;;;;;12.27;7.60;;;7.40;99.90;;;;;;5080263;28;20283;-78
2021/03/17 00:25:34;;;;;;;11.57;7.60;;;7.40;99.90;;;;;;5082919;28;20631;-77
2021/03/17 00:28:01;;;;;;;9.30;6.68;;;7.40;99.90;;;;;;5084095;28;20290;-78
2021/03/17 00:30:29;;;;;;;8.88;7.15;;;7.40;99.90;;;;;;5079853;28;20207;-77
2021/03/17 00:32:56;;;;;;;9.88;6.72;;;7.40;99.90;;;;;;5080834;28;20677;-79
2021/03/17 00:35:23;;;;;;;8.77;7.50;;;7.40;99.90;;;;;;5079423;28;20222;-77
2021/03/17 00:37:49;;;;;;;9.52;7.55;;;7.40;99.90;;;;;;5080222;28;20261;-77
2021/03/17 00:40:16;;;;;;;10.05;6.60;;;7.40;99.90;;;;;;5084897;28;20637;-78
2021/03/17 00:42:43;;;;;;;10.13;8.48;;;7.40;99.90;;;;;;5080569;28;20291;-78
2021/03/17 00:45:10;;;;;;;11.60;8.60;;;7.40;99.90;;;;;;5078842;28;20557;-77
2021/03/17 00:47:37;;;;;;;8.30;6.93;;;7.40;99.90;;;;;;5080575;28;20550;-78
2021/03/17 00:50:06;;;;;;;14.00;9.80;;;7.30;99.90;;;;;;5080400;28;20192;-78
2021/03/17 00:52:32;;;;;;;20.52;8.90;;;7.30;99.90;;;;;;5084620;28;20211;-78
2021/03/17 00:54:59;;;;;;;9.38;7.20;;;7.30;99.90;;;;;;5081551;28;20216;-78
2021/03/17 00:57:25;;;;;;;9.35;7.90;;;7.30;99.90;;;;;;5080206;28;20250;-77
2021/03/17 00:59:51;;;;;;;10.75;8.00;;;7.30;99.90;;;;;;5079348;28;20283;-77
2021/03/17 01:02:18;;;;;;;9.20;8.05;;;7.20;99.90;;;;;;5078985;28;20192;-78
2021/03/17 01:04:46;;;;;;;11.15;8.27;;;7.20;99.90;;;;;;5080576;28;20206;-77
2021/03/17 01:07:14;;;;;;;10.65;9.48;;;7.20;99.90;;;;;;5080852;28;20224;-78
2021/03/17 01:09:40;;;;;;;12.60;10.25;;;7.20;99.90;;;;;;5083466;28;20203;-78
2021/03/17 01:12:08;;;;;;;13.85;10.60;;;7.20;99.90;;;;;;5081162;28;20287;-79
2021/03/17 01:14:35;;;;;;;14.07;10.43;;;7.20;99.90;;;;;;5077692;28;20219;-78
2021/03/17 01:17:02;;;;;;;13.60;9.05;;;7.30;99.90;;;;;;5079072;28;20617;-78
2021/03/17 01:19:28;;;;;;;11.10;8.18;;;7.30;99.90;;;;;;5081422;28;20888;-78
2021/03/17 01:21:55;;;;;;;8.48;7.15;;;7.30;99.90;;;;;;5082175;28;20220;-77
2021/03/17 01:24:22;;;;;;;11.60;7.35;;;7.30;99.90;;;;;;5081823;28;20572;-79
2021/03/17 01:26:49;;;;;;;10.13;7.57;;;7.20;99.90;;;;;;5079912;28;20299;-78
2021/03/17 01:29:16;;;;;;;8.10;7.28;;;7.30;99.90;;;;;;5078521;28;20655;-77
2021/03/17 01:31:42;;;;;;;9.38;8.43;;;7.20;99.90;;;;;;5077190;28;20201;-77
2021/03/17 01:34:08;;;;;;;10.23;7.90;;;7.20;99.90;;;;;;5079539;28;20573;-79
2021/03/17 01:36:35;;;;;;;9.60;7.45;;;7.20;99.90;;;;;;5077552;28;20286;-77
2021/03/17 01:39:03;;;;;;;8.68;7.78;;;7.20;99.90;;;;;;5079568;28;20612;-79
2021/03/17 01:41:30;;;;;;;11.02;7.25;;;7.20;99.90;;;;;;5081668;28;20215;-77
2021/03/17 01:43:56;;;;;;;10.00;7.05;;;7.10;99.90;;;;;;5081423;28;20714;-79
2021/03/17 01:46:22;;;;;;;8.48;7.43;;;7.10;99.90;;;;;;5074614;28;20196;-78
2021/03/17 01:48:49;;;;;;;9.90;7.05;;;7.10;99.90;;;;;;5078490;28;20332;-79
2021/03/17 01:51:15;;;;;;;7.20;6.15;;;7.10;99.90;;;;;;5079131;28;20315;-78
2021/03/17 01:53:42;;;;;;;7.47;6.75;;;7.10;99.90;;;;;;5080206;28;20197;-78
2021/03/17 01:56:10;;;;;;;6.63;5.93;;;7.10;99.90;;;;;;5083510;28;20208;-78
2021/03/17 01:58:37;;;;;;;9.25;7.60;;;7.00;99.90;;;;;;5078240;28;20199;-77
2021/03/17 02:01:05;;;;;;;8.43;7.18;;;7.00;99.90;;;;;;5077874;28;20227;-77
2021/03/17 02:03:31;;;;;;;8.13;7.00;;;7.00;99.90;;;;;;5079627;28;20206;-77
2021/03/17 02:05:59;;;;;;;9.45;7.72;;;7.00;99.90;;;;;;5080993;28;20196;-78
2021/03/17 02:08:29;;;;;;;9.18;7.05;;;7.00;99.90;;;;;;5082154;28;20462;-78
2021/03/17 02:10:56;;;;;;;7.95;7.07;;;7.00;99.90;;;;;;5078513;28;20203;-77
2021/03/17 02:13:55;;;;;;;12.63;7.82;;;7.10;99.90;;;;;;5077407;28;20195;-77
2021/03/17 02:16:26;;;;;;;8.02;7.22;;;7.10;99.90;;;;;;5077096;28;20254;-78
2021/03/17 02:19:07;;;;;;;9.45;7.65;;;7.10;99.90;;;;;;5078193;28;20208;-78
2021/03/17 02:21:48;;;;;;;7.60;6.88;;;7.00;99.90;;;;;;5078135;28;20276;-80
2021/03/17 02:24:20;;;;;;;10.85;7.70;;;7.00;99.90;;;;;;5077425;28;20223;-77
2021/03/17 02:27:26;;;;;;;7.40;6.70;;;6.90;99.90;;;;;;5081930;28;20594;-78
2021/03/17 02:30:28;;;;;;;7.78;6.50;;;6.90;99.90;;;;;;5063168;28;20545;-77
2021/03/17 02:33:27;;;;;;;8.45;7.40;;;6.90;99.90;;;;;;5082490;28;20204;-78
2021/03/17 02:36:01;;;;;;;8.38;6.78;;;6.80;99.90;;;;;;5077027;28;20264;-78
2021/03/17 02:38:29;;;;;;;9.20;8.00;;;6.80;99.90;;;;;;5079266;28;20192;-78
2021/03/17 02:40:58;;;;;;;10.48;8.70;;;6.80;99.90;;;;;;5077658;28;20795;-76
2021/03/17 02:43:30;;;;;;;9.68;7.90;;;6.80;99.90;;;;;;5076569;28;20204;-80
2021/03/17 02:46:01;;;;;;;9.90;8.90;;;6.80;99.90;;;;;;5075955;28;20711;-77
2021/03/17 02:48:30;;;;;;;8.27;7.47;;;6.80;99.90;;;;;;5077045;28;20196;-77
2021/03/17 02:51:04;;;;;;;10.75;7.25;;;6.80;99.90;;;;;;5076401;28;20261;-79
2021/03/17 02:53:33;;;;;;;7.75;6.95;;;6.80;99.90;;;;;;5076503;28;20198;-78
2021/03/17 02:56:05;;;;;;;8.32;6.50;;;6.80;99.90;;;;;;5078231;28;20836;-77
2021/03/17 02:58:32;;;;;;;7.15;6.13;;;6.70;99.90;;;;;;5082436;28;20276;-79
2021/03/17 03:01:00;;;;;;;6.50;5.63;;;6.70;99.90;;;;;;5079831;28;20702;-77
2021/03/17 03:03:29;;;;;;;6.28;5.45;;;6.70;99.90;;;;;;5074446;28;20853;-78
2021/03/17 03:05:58;;;;;;;6.80;5.55;;;6.70;99.90;;;;;;5078792;28;20794;-77
2021/03/17 03:08:26;;;;;;;6.28;5.47;;;6.70;99.90;;;;;;5080691;28;20279;-79
2021/03/17 03:10:54;;;;;;;7.13;5.95;;;6.70;99.90;;;;;;5081477;28;20294;-77
2021/03/17 03:13:24;;;;;;;6.15;5.18;;;6.70;99.90;;;;;;5076919;28;20203;-77
2021/03/17 03:15:53;;;;;;;7.50;6.80;;;6.70;99.90;;;;;;5075969;28;21032;-77
2021/03/17 03:18:20;;;;;;;7.00;5.95;;;6.60;99.90;;;;;;5078337;28;20205;-77
2021/03/17 03:20:47;;;;;;;7.57;5.90;;;6.60;99.90;;;;;;5077999;28;20192;-77
2021/03/17 03:23:17;;;;;;;8.27;5.57;;;6.60;99.90;;;;;;5078002;28;20214;-78
2021/03/17 03:25:45;;;;;;;6.38;5.28;;;6.60;99.90;;;;;;5082067;28;20220;-77
2021/03/17 03:28:14;;;;;;;5.85;5.15;;;6.60;99.90;;;;;;5075751;28;20240;-77
2021/03/17 03:30:43;;;;;;;6.47;5.88;;;6.50;99.90;;;;;;5076685;28;20292;-77
2021/03/17 03:33:10;;;;;;;6.05;5.45;;;6.60;99.90;;;;;;5076154;28;20202;-77
2021/03/17 03:35:37;;;;;;;6.72;6.03;;;6.60;99.90;;;;;;5077167;28;20232;-77
2021/03/17 03:38:05;;;;;;;6.10;4.80;;;6.60;99.90;;;;;;5076778;28;20224;-77
2021/03/17 03:40:33;;;;;;;6.00;5.35;;;6.60;99.90;;;;;;5080539;28;20302;-78
2021/03/17 03:43:00;;;;;;;6.60;5.22;;;6.60;99.90;;;;;;5077993;28;20287;-78
2021/03/17 03:45:28;;;;;;;5.10;4.70;;;6.50;99.90;;;;;;5076654;28;20200;-78
2021/03/17 03:47:54;;;;;;;7.20;5.53;;;6.50;99.90;;;;;;5075196;28;20241;-77
2021/03/17 03:50:23;;;;;;;6.78;6.07;;;6.50;99.90;;;;;;5077301;28;20188;-78
2021/03/17 03:52:59;;;;;;;5.95;5.35;;;6.50;99.90;;;;;;5079698;28;20612;-77
2021/03/17 03:55:28;;;;;;;6.20;5.60;;;6.40;99.90;;;;;;5079238;28;20231;-78
2021/03/17 03:58:00;;;;;;;6.07;5.40;;;6.40;99.90;;;;;;5079521;28;20196;-77
2021/03/17 04:00:30;;;;;;;9.55;5.93;;;6.40;99.90;;;;;;5076485;28;20228;-78
2021/03/17 04:02:59;;;;;;;9.20;5.75;;;6.40;99.90;;;;;;5076823;28;20549;-78
2021/03/17 04:05:30;;;;;;;6.57;6.00;;;6.40;99.90;;;;;;5076895;28;20301;-77
2021/03/17 04:08:00;;;;;;;7.35;6.75;;;6.40;99.90;;;;;;5077258;28;20287;-78
2021/03/17 04:10:26;;;;;;;6.85;5.82;;;6.30;99.90;;;;;;5077950;28;20254;-78
2021/03/17 04:12:56;;;;;;;6.63;5.75;;;6.40;99.90;;;;;;5080085;28;20740;-77
2021/03/17 04:15:25;;;;;;;7.15;6.15;;;6.40;99.90;;;;;;5078913;28;20622;-78
2021/03/17 04:17:58;;;;;;;7.88;6.60;;;6.40;99.90;;;;;;5076853;28;20644;-79
2021/03/17 04:20:30;;;;;;;7.55;5.53;;;6.40;99.90;;;;;;5073991;28;20200;-79
2021/03/17 04:22:58;;;;;;;6.10;5.47;;;6.40;99.90;;;;;;5076799;28;20682;-77
2021/03/17 04:25:26;;;;;;;6.10;5.60;;;6.40;99.90;;;;;;5079948;28;20789;-77
2021/03/17 04:27:56;;;;;;;6.60;5.50;;;6.40;99.90;;;;;;5083179;28;20197;-77
2021/03/17 04:30:25;;;;;;;5.03;4.53;;;6.40;99.90;;;;;;5082510;28;20212;-77
2021/03/17 04:32:53;;;;;;;4.65;4.20;;;6.40;99.90;;;;;;5081061;28;20707;-78
2021/03/17 04:35:22;;;;;;;5.72;5.22;;;6.40;99.90;;;;;;5079087;28;20724;-78
2021/03/17 04:37:51;;;;;;;5.07;3.92;;;6.30;99.90;;;;;;5078988;28;20203;-77
2021/03/17 04:40:18;;;;;;;8.35;4.20;;;6.30;99.90;;;;;;5080546;28;20265;-77
2021/03/17 04:42:46;;;;;;;4.90;4.43;;;6.30;99.90;;;;;;5082131;28;20195;-78
2021/03/17 04:45:15;;;;;;;4.85;3.80;;;6.30;99.90;;;;;;5083618;28;20199;-78
2021/03/17 04:47:43;;;;;;;5.80;4.45;;;6.20;99.90;;;;;;5078750;28;20307;-77
2021/03/17 04:50:13;;;;;;;3.97;3.67;;;6.20;99.90;;;;;;5078755;28;20663;-79
2021/03/17 04:52:42;;;;;;;3.97;3.65;;;6.20;99.90;;;;;;5079789;28;20469;-77
2021/03/17 04:55:12;;;;;;;4.20;3.80;;;6.20;99.90;;;;;;5081031;28;20630;-78
2021/03/17 04:57:40;;;;;;;4.25;3.85;;;6.20;99.90;;;;;;5081913;28;20286;-79
2021/03/17 05:00:09;;;;;;;3.40;3.20;;;6.10;99.90;;;;;;5081432;28;20231;-77
2021/03/17 05:02:38;;;;;;;4.15;3.75;;;6.10;99.90;;;;;;5080453;28;20218;-77
2021/03/17 05:05:08;;;;;;;4.05;3.75;;;6.10;99.90;;;;;;5079932;28;20244;-78
2021/03/17 05:10:58;;;;;;;4.70;4.18;;;6.10;99.90;;;;;;5076844;28;20275;-77
2021/03/17 05:13:25;;;;;;;4.22;3.83;;;6.20;99.90;;;;;;5077622;28;20201;-78
2021/03/17 05:15:51;;;;;;;4.13;3.80;;;6.20;99.90;;;;;;5080328;28;20229;-79
2021/03/17 05:18:20;;;;;;;5.13;4.65;;;6.20;99.90;;;;;;5082149;28;20232;-77
2021/03/17 05:20:50;;;;;;;5.57;4.55;;;6.20;99.90;;;;;;5083367;28;20278;-76
2021/03/17 05:23:17;;;;;;;4.72;4.32;;;6.20;99.90;;;;;;5078688;28;20203;-78
2021/03/17 05:25:45;;;;;;;5.03;4.53;;;6.20;99.90;;;;;;5079463;28;20782;-78
2021/03/17 05:28:15;;;;;;;6.75;5.13;;;6.20;99.90;;;;;;5079967;28;20276;-77
2021/03/17 05:30:43;;;;;;;5.60;4.70;;;6.20;99.90;;;;;;5081521;28;20203;-77
2021/03/17 05:33:11;;;;;;;7.45;4.97;;;6.10;99.90;;;;;;5080766;28;20200;-78
2021/03/17 05:35:39;;;;;;;4.88;4.38;;;6.10;99.90;;;;;;5077738;28;20314;-78
2021/03/17 05:38:07;;;;;;;5.63;5.13;;;6.20;99.90;;;;;;5079722;28;20192;-77
2021/03/17 05:40:35;;;;;;;5.30;4.47;;;6.20;99.90;;;;;;5078531;28;20200;-77
2021/03/17 05:43:03;;;;;;;4.75;4.15;;;6.20;99.90;;;;;;5081819;28;20586;-77
2021/03/17 05:45:32;;;;;;;4.38;3.97;;;6.20;99.90;;;;;;5081171;28;20215;-78
2021/03/17 05:48:00;;;;;;;6.45;3.95;;;6.20;99.90;;;;;;5078239;28;20197;-77
2021/03/17 05:50:27;;;;;;;6.28;4.60;;;6.20;99.90;;;;;;5076093;28;20195;-77
2021/03/17 05:52:54;;;;;;;4.60;4.05;;;6.20;99.90;;;;;;5077474;28;20188;-78
2021/03/17 05:55:21;;;;;;;5.10;4.32;;;6.20;99.90;;;;;;5080748;28;20220;-77
2021/03/17 05:57:47;;;;;;;6.05;5.18;;;6.30;99.90;;;;;;5081787;28;20192;-77
2021/03/17 06:00:16;;;;;;;7.30;5.80;;;6.30;99.90;;;;;;5071551;28;20220;-77
2021/03/17 06:02:43;;;;;;;7.65;6.32;;;6.30;99.90;;;;;;5073548;28;20212;-76
2021/03/17 06:05:11;;;;;;;6.05;5.45;;;6.30;99.90;;;;;;5073947;28;20207;-78
2021/03/17 06:07:42;;;;;;;7.03;6.32;;;6.30;99.90;;;;;;5072907;28;20258;-77
2021/03/17 06:10:10;;;;;;;8.90;7.15;;;6.30;99.90;;;;;;5067409;28;20208;-76
2021/03/17 06:12:38;;;;;;;7.57;6.78;;;6.30;99.90;;;;;;5074755;28;20655;-78
2021/03/17 06:15:07;;;;;;;7.95;7.15;;;6.30;99.90;;;;;;5076608;28;20250;-78
2021/03/17 06:17:35;;;;;;;8.75;7.35;;;6.30;99.90;;;;;;5075061;28;20738;-77
2021/03/17 06:20:05;;;;;;;7.70;6.90;;;6.30;99.90;;;;;;5075221;28;20218;-77
2021/03/17 06:22:33;;;;;;;9.13;7.05;;;6.30;99.90;;;;;;5075826;28;20725;-77
2021/03/17 06:25:04;;;;;;;9.95;8.48;;;6.30;99.90;;;;;;5079149;28;20790;-77
2021/03/17 06:27:32;;;;;;;7.50;6.80;;;6.30;99.90;;;;;;5082341;28;20231;-76
2021/03/17 06:29:59;;;;;;;8.18;7.20;;;6.30;99.90;;;;;;5075295;28;20197;-78
2021/03/17 06:32:26;;;;;;;9.55;8.32;;;6.30;99.90;;;;;;5073836;28;20594;-77
2021/03/17 06:34:52;;;;;;;10.20;8.20;;;6.40;99.90;;;;;;5073751;28;20212;-77
2021/03/17 06:37:34;;;;;;;8.80;7.88;;;6.30;99.90;;;;;;5076771;28;20214;-77
2021/03/17 06:40:01;;;;;;;8.30;7.35;;;6.40;99.90;;;;;;5079703;28;20199;-77
2021/03/17 06:42:40;;;;;;;10.30;8.63;;;6.40;99.90;;;;;;5079434;28;20283;-76
2021/03/17 06:45:08;;;;;;;8.15;7.30;;;6.40;99.90;;;;;;5074961;28;20226;-76
2021/03/17 06:47:35;;;;;;;7.15;6.45;;;6.40;99.90;;;;;;5077097;28;20268;-77
2021/03/17 06:50:12;;;;;;;10.40;8.68;;;6.50;99.90;;;;;;5075809;28;20206;-77
2021/03/17 06:52:40;;;;;;;9.05;8.05;;;6.40;99.90;;;;;;5076472;28;20249;-76
2021/03/17 06:55:12;;;;;;;9.32;7.88;;;6.50;99.90;;;;;;5075724;28;20230;-77
2021/03/17 06:57:41;;;;;;;8.65;7.57;;;6.50;99.90;;;;;;5081950;28;20204;-77
2021/03/17 07:00:19;;;;;;;9.20;8.25;;;6.50;99.90;;;;;;5077139;28;20228;-77
2021/03/17 07:02:57;;;;;;;8.68;7.88;;;6.50;99.90;;;;;;5072380;28;20210;-78
2021/03/17 07:05:35;;;;;;;16.48;9.10;;;6.50;99.90;;;;;;5077489;28;20511;-77
2021/03/17 07:08:03;;;;;;;10.93;7.68;;;6.60;99.90;;;;;;5071376;28;20631;-77
2021/03/17 07:10:32;;;;;;;10.50;8.27;;;6.60;99.90;;;;;;5071299;28;20751;-76
2021/03/17 07:13:00;;;;;;;10.95;8.25;;;6.60;99.90;;;;;;5072997;28;20192;-78
2021/03/17 07:15:27;;;;;;;8.63;7.70;;;6.60;99.90;;;;;;5078681;28;20219;-78
2021/03/17 07:18:11;;;;;;;8.68;7.88;;;6.70;99.90;;;;;;5075494;28;20286;-76
2021/03/17 07:20:41;;;;;;;10.30;7.20;;;6.70;99.90;;;;;;5075920;28;20218;-78
2021/03/17 07:23:24;;;;;;;8.27;7.32;;;6.70;99.90;;;;;;5076803;28;20216;-76
2021/03/17 07:26:11;;;;;;;9.45;7.63;;;6.80;99.90;;;;;;5075836;28;20252;-77
2021/03/17 07:29:05;;;;;;;8.52;7.28;;;6.80;99.90;;;;;;5076090;28;20200;-78
2021/03/17 07:31:34;;;;;;;8.85;6.78;;;6.80;99.90;;;;;;5074856;28;20203;-78
2021/03/17 07:34:11;;;;;;;8.00;7.20;;;6.80;99.90;;;;;;5075569;28;20665;-77
2021/03/17 07:36:41;;;;;;;6.88;6.28;;;6.90;99.90;;;;;;5073526;28;20294;-78
2021/03/17 07:39:11;;;;;;;6.75;4.97;;;6.90;99.90;;;;;;5073445;28;20231;-77
2021/03/17 07:41:39;;;;;;;6.07;5.47;;;6.90;99.90;;;;;;5081272;28;20231;-78
2021/03/17 07:44:10;;;;;;;5.70;5.07;;;6.90;99.90;;;;;;5074649;28;20723;-78
2021/03/17 07:46:37;;;;;;;6.60;5.90;;;6.90;99.90;;;;;;5075231;28;20198;-78
2021/03/17 07:49:06;;;;;;;7.55;5.45;;;6.90;99.90;;;;;;5071779;28;20188;-78
2021/03/17 07:51:35;;;;;;;5.70;5.20;;;6.90;99.90;;;;;;5080477;28;20200;-78
2021/03/17 07:54:04;;;;;;;6.15;4.80;;;6.90;99.90;;;;;;5072156;28;20551;-77
2021/03/17 07:56:31;;;;;;;4.88;3.85;;;6.90;99.90;;;;;;5079565;28;20283;-77
2021/03/17 07:58:58;;;;;;;4.50;3.22;;;7.00;99.90;;;;;;5078413;28;20196;-76
2021/03/17 08:01:27;;;;;;;4.88;3.85;;;7.00;99.90;;;;;;5080565;28;20277;-77
2021/03/17 08:03:55;;;;;;;2.78;2.50;;;6.90;99.90;;;;;;5076183;28;20201;-78
2021/03/17 08:06:22;;;;;;;3.40;3.10;;;7.00;99.90;;;;;;5081842;28;20199;-78
2021/03/17 08:08:49;;;;;;;3.15;2.85;;;7.00;99.90;;;;;;5079145;28;20556;-77
2021/03/17 08:11:18;;;;;;;3.05;2.33;;;7.00;99.90;;;;;;5078652;28;20273;-77
2021/03/17 08:13:46;;;;;;;5.25;3.60;;;7.10;99.90;;;;;;5079132;28;20278;-77
2021/03/17 08:16:17;;;;;;;3.78;3.35;;;7.10;99.90;;;;;;5076019;28;20224;-78
2021/03/17 08:18:54;;;;;;;2.60;2.40;;;7.10;99.90;;;;;;5075092;28;20340;-78
2021/03/17 08:21:43;;;;;;;5.00;2.38;;;7.20;99.90;;;;;;5082653;28;20286;-78
2021/03/17 08:24:09;;;;;;;3.10;2.90;;;7.20;99.90;;;;;;5081172;28;20208;-78
2021/03/17 08:26:46;;;;;;;3.22;2.75;;;7.20;99.90;;;;;;5079987;28;20199;-78
2021/03/17 08:29:14;;;;;;;2.63;2.42;;;7.20;99.90;;;;;;5072024;28;20287;-78
2021/03/17 08:31:53;;;;;;;4.88;2.95;;;7.20;99.90;;;;;;5077486;28;20193;-78
2021/03/17 08:34:29;;;;;;;2.60;2.40;;;7.10;99.90;;;;;;5075184;28;20287;-78
2021/03/17 08:36:58;;;;;;;2.92;2.63;;;7.00;99.90;;;;;;5077296;28;20230;-76
2021/03/17 08:39:46;;;;;;;7.53;3.05;;;7.00;99.90;;;;;;5075072;28;20228;-76
2021/03/17 08:42:27;;;;;;;3.40;2.55;;;6.90;99.90;;;;;;5078849;28;20283;-77
2021/03/17 08:44:55;;;;;;;3.13;2.83;;;6.90;99.90;;;;;;5077172;28;20207;-77
2021/03/17 08:47:27;;;;;;;2.80;2.60;;;6.90;99.90;;;;;;5076316;28;20267;-78
2021/03/17 08:49:56;;;;;;;4.43;2.85;;;6.90;99.90;;;;;;5073599;28;20249;-78
2021/03/17 08:52:24;;;;;;;2.65;2.35;;;6.90;99.90;;;;;;5077985;28;20196;-79
2021/03/17 08:55:12;;;;;;;4.65;2.60;;;6.80;99.90;;;;;;5073615;28;20220;-78
2021/03/17 08:58:06;;;;;;;6.05;2.80;;;6.80;99.90;;;;;;5074376;28;20196;-77
2021/03/17 09:00:55;;;;;;;2.65;2.03;;;7.00;99.90;;;;;;5077409;28;20270;-78
2021/03/17 09:03:43;;;;;;;2.55;2.20;;;7.00;99.90;;;;;;5080401;28;20191;-80
2021/03/17 09:06:23;;;;;;;3.00;2.10;;;7.00;99.90;;;;;;5079257;28;20714;-77
2021/03/17 09:08:55;;;;;;;4.00;2.90;;;7.00;99.90;;;;;;5077898;28;20294;-78
2021/03/17 09:11:49;;;;;;;4.25;2.40;;;7.10;99.90;;;;;;5081302;28;20203;-79
2021/03/17 09:14:21;;;;;;;6.53;2.60;;;7.20;99.90;;;;;;5075382;28;20195;-77
2021/03/17 09:17:11;;;;;;;2.50;1.80;;;7.30;99.90;;;;;;5075115;28;20283;-78
2021/03/17 09:19:56;;;;;;;3.17;2.20;;;7.30;99.90;;;;;;5070703;28;20199;-78
2021/03/17 09:22:41;;;;;;;2.85;1.95;;;7.40;99.90;;;;;;5075372;28;20188;-78
2021/03/17 09:25:19;;;;;;;2.33;2.10;;;7.40;99.90;;;;;;5074650;28;20215;-79
2021/03/17 09:27:47;;;;;;;3.85;2.35;;;7.40;99.90;;;;;;5076260;28;20192;-78
2021/03/17 09:30:15;;;;;;;3.67;2.20;;;7.50;99.90;;;;;;5077620;28;20290;-79
2021/03/17 09:32:42;;;;;;;2.60;2.40;;;7.50;99.90;;;;;;5079725;28;20298;-78
2021/03/17 09:35:10;;;;;;;10.55;2.40;;;7.40;99.90;;;;;;5077934;28;20227;-78
2021/03/17 09:37:37;;;;;;;3.58;2.28;;;7.40;99.90;;;;;;5074161;28;21257;-80
2021/03/17 09:40:06;;;;;;;4.32;2.28;;;7.30;99.90;;;;;;5069368;28;20184;-80
2021/03/17 09:42:36;;;;;;;2.65;2.35;;;7.30;99.90;;;;;;5079833;28;20675;-79
2021/03/17 09:45:03;;;;;;;3.10;2.42;;;7.30;99.90;;;;;;5074472;28;20199;-79
2021/03/17 09:47:31;;;;;;;5.20;2.28;;;7.30;99.90;;;;;;5075401;28;20493;-78
2021/03/17 09:49:58;;;;;;;2.70;2.30;;;7.30;99.90;;;;;;5074261;28;20226;-80
2021/03/17 09:52:25;;;;;;;2.53;2.30;;;7.50;99.90;;;;;;5074432;28;20285;-79
2021/03/17 09:54:52;;;;;;;6.38;2.50;;;7.50;99.90;;;;;;5075883;28;20268;-79
2021/03/17 09:57:19;;;;;;;4.70;2.20;;;7.60;99.90;;;;;;5075141;28;20629;-81
2021/03/17 09:59:46;;;;;;;3.00;1.90;;;7.60;99.90;;;;;;5075902;28;20219;-79
2021/03/17 10:02:17;;;;;;;2.78;2.38;;;7.70;99.90;;;;;;5072868;28;20619;-79
2021/03/17 10:04:45;;;;;;;3.33;1.58;;;7.70;99.90;;;;;;5073801;28;20188;-79
2021/03/17 10:07:13;;;;;;;1.67;1.58;;;7.80;99.90;;;;;;5071735;28;20650;-80
2021/03/17 10:09:40;;;;;;;5.13;1.70;;;7.90;99.90;;;;;;5074338;28;20215;-79
2021/03/17 10:12:10;;;;;;;2.58;1.95;;;7.90;99.90;;;;;;5079488;28;20759;-80
2021/03/17 10:14:39;;;;;;;3.33;1.88;;;7.90;99.90;;;;;;5080716;28;20222;-79
2021/03/17 10:17:07;;;;;;;2.20;2.00;;;8.00;99.90;;;;;;5076693;28;20207;-80
2021/03/17 10:19:35;;;;;;;2.55;2.05;;;7.90;99.90;;;;;;5072442;28;20211;-82
2021/03/17 10:22:02;;;;;;;1.80;1.52;;;7.90;99.90;;;;;;5076462;28;20688;-80
2021/03/17 10:24:36;;;;;;;2.40;2.20;;;7.90;99.90;;;;;;5077926;28;20301;-79
2021/03/17 10:27:05;;;;;;;6.88;2.20;;;7.90;99.90;;;;;;5077129;28;20283;-79
2021/03/17 10:29:32;;;;;;;4.80;1.90;;;7.90;99.90;;;;;;5072974;28;20265;-80
2021/03/17 10:31:59;;;;;;;2.42;1.58;;;8.00;99.90;;;;;;5076696;28;20195;-79
2021/03/17 10:34:27;;;;;;;2.40;1.40;;;8.10;99.90;;;;;;5078744;28;20303;-80
2021/03/17 10:36:55;;;;;;;1.60;1.50;;;8.10;99.90;;;;;;5072898;28;20253;-80
2021/03/17 10:39:29;;;;;;;1.75;1.65;;;8.10;99.90;;;;;;5078903;28;20308;-80
2021/03/17 10:41:56;;;;;;;5.00;1.80;;;8.10;99.90;;;;;;5078161;28;20187;-79
2021/03/17 10:44:25;;;;;;;2.58;1.40;;;8.10;99.90;;;;;;5085334;28;20198;-79
2021/03/17 10:47:01;;;;;;;1.30;1.20;;;8.10;99.90;;;;;;5086524;28;20271;-80
2021/03/17 10:49:28;;;;;;;1.88;1.55;;;8.10;99.90;;;;;;5083928;28;20230;-82
2021/03/17 10:51:55;;;;;;;2.55;1.83;;;8.10;99.90;;;;;;5078918;28;20275;-84
2021/03/17 10:54:30;;;;;;;4.03;1.40;;;8.10;99.90;;;;;;5078629;28;20744;-80
2021/03/17 10:56:56;;;;;;;1.55;1.45;;;8.20;99.90;;;;;;5072767;28;20204;-79
2021/03/17 10:59:28;;;;;;;1.52;1.42;;;8.40;99.90;;;;;;5072738;28;20215;-79
2021/03/17 11:02:21;;;;;;;4.60;1.30;;;8.40;99.90;;;;;;5078780;28;20307;-79
2021/03/17 11:05:09;;;;;;;2.15;1.60;;;8.50;99.90;;;;;;5076467;28;20723;-79
2021/03/17 11:08:07;;;;;;;5.63;4.35;;;8.50;99.90;;;;;;5076269;28;20694;-79
2021/03/17 11:10:45;;;;;;;1.63;1.52;;;8.50;99.90;;;;;;5074301;28;20205;-79
2021/03/17 11:13:42;;;;;;;2.65;1.55;;;8.40;99.90;;;;;;5077266;28;20192;-82
2021/03/17 11:16:26;;;;;;;2.03;1.80;;;8.40;99.90;;;;;;5074983;28;20640;-79
2021/03/17 11:18:55;;;;;;;2.22;1.48;;;8.40;99.90;;;;;;5072857;28;20784;-81
2021/03/17 11:21:25;;;;;;;2.00;1.30;;;8.40;99.90;;;;;;5074930;28;20208;-80
2021/03/17 11:23:53;;;;;;;1.73;1.63;;;8.40;99.90;;;;;;5079118;28;20190;-80
2021/03/17 11:26:22;;;;;;;2.40;1.50;;;8.40;99.90;;;;;;5075460;28;20219;-82
2021/03/17 11:28:51;;;;;;;2.88;1.55;;;8.40;99.90;;;;;;5075183;28;20291;-81
2021/03/17 11:31:29;;;;;;;2.75;1.40;;;8.40;99.90;;;;;;5082094;28;20225;-81
2021/03/17 11:33:57;;;;;;;2.50;2.13;;;8.50;99.90;;;;;;5081512;28;20202;-80
2021/03/17 11:36:24;;;;;;;2.78;1.65;;;8.40;99.90;;;;;;5076204;28;20215;-80
2021/03/17 11:38:51;;;;;;;3.00;1.60;;;8.40;99.90;;;;;;5083145;28;20291;-81
2021/03/17 11:41:18;;;;;;;3.25;2.08;;;8.40;99.90;;;;;;5081342;28;20236;-81
2021/03/17 11:43:45;;;;;;;2.15;1.90;;;8.50;99.90;;;;;;5079662;28;20192;-83
2021/03/17 11:46:12;;;;;;;2.05;1.88;;;8.60;99.90;;;;;;5084540;28;20279;-81
2021/03/17 11:48:40;;;;;;;8.50;2.33;;;8.70;99.90;;;;;;5079576;28;20720;-81
2021/03/17 11:51:08;;;;;;;3.88;1.80;;;8.80;99.90;;;;;;5078329;28;20243;-80
2021/03/17 11:53:36;;;;;;;1.92;1.80;;;8.70;99.90;;;;;;5077667;28;20264;-81
2021/03/17 11:56:04;;;;;;;8.48;2.08;;;8.60;99.90;;;;;;5075595;28;20220;-82
2021/03/17 11:58:31;;;;;;;6.93;2.17;;;8.60;99.90;;;;;;5082153;28;20887;-80
2021/03/17 12:00:58;;;;;;;2.95;1.67;;;8.50;99.90;;;;;;5077402;28;20579;-80
2021/03/17 12:03:24;;;;;;;5.82;2.00;;;8.40;99.90;;;;;;5082308;28;20844;-79
2021/03/17 12:05:50;;;;;;;5.65;2.03;;;8.40;99.90;;;;;;5079499;28;20231;-80
2021/03/17 12:08:19;;;;;;;3.00;2.13;;;8.40;99.90;;;;;;5079200;28;20675;-79
2021/03/17 12:10:49;;;;;;;3.00;1.85;;;8.50;99.90;;;;;;5084256;28;20209;-80
2021/03/17 12:13:15;;;;;;;4.70;2.20;;;8.60;99.90;;;;;;5080072;28;20774;-79
2021/03/17 12:15:42;;;;;;;2.95;2.00;;;8.50;99.90;;;;;;5081882;28;20216;-81
2021/03/17 12:18:09;;;;;;;3.90;2.08;;;8.50;99.90;;;;;;5072253;28;20408;-81
2021/03/17 12:20:36;;;;;;;2.00;1.67;;;8.40;99.90;;;;;;5072278;28;20201;-82
2021/03/17 12:23:03;;;;;;;1.90;1.80;;;8.40;99.90;;;;;;5068096;28;20295;-81
2021/03/17 12:25:30;;;;;;;3.03;2.22;;;8.20;99.90;;;;;;5070170;28;20263;-82
2021/03/17 12:27:57;;;;;;;3.03;1.90;;;8.10;99.90;;;;;;5078236;28;20201;-83
2021/03/17 12:30:24;;;;;;;5.10;3.80;;;8.00;99.90;;;;;;5077139;28;20250;-83
2021/03/17 12:32:52;;;;;;;21.75;13.35;;;8.00;99.90;;;;;;5082132;28;20279;-82
2021/03/17 12:35:21;;;;;;;2.63;2.00;;;7.90;99.90;;;;;;5074582;28;20849;-81
2021/03/17 12:37:49;;;;;;;4.22;1.92;;;7.90;99.90;;;;;;5074545;28;20231;-84
2021/03/17 12:40:18;;;;;;;3.20;1.60;;;7.90;99.90;;;;;;5075801;28;20315;-82
2021/03/17 12:42:46;;;;;;;1.80;1.70;;;7.90;99.90;;;;;;5074639;28;20207;-86
2021/03/17 12:45:14;;;;;;;3.35;2.00;;;7.90;99.90;;;;;;5078642;28;20187;-82
2021/03/17 12:47:42;;;;;;;3.08;2.42;;;8.00;99.90;;;;;;5082822;28;20821;-84
2021/03/17 12:50:14;;;;;;;5.35;2.20;;;8.20;99.90;;;;;;5075832;28;20282;-90
2021/03/17 12:52:41;;;;;;;4.10;2.10;;;8.30;99.90;;;;;;5075870;28;20235;-87
2021/03/17 12:55:09;;;;;;;2.40;1.90;;;8.50;99.90;;;;;;5080648;28;20303;-83
2021/03/17 12:57:37;;;;;;;2.80;1.90;;;8.50;99.90;;;;;;5077308;28;20208;-84
2021/03/17 13:00:07;;;;;;;3.17;1.80;;;8.50;99.90;;;;;;5078245;28;20196;-84
2021/03/17 13:02:33;;;;;;;2.88;1.80;;;8.50;99.90;;;;;;5083674;28;20208;-82
2021/03/17 13:04:59;;;;;;;4.10;1.73;;;8.40;99.90;;;;;;5079110;28;20199;-84
2021/03/17 13:07:26;;;;;;;3.20;2.22;;;8.50;99.90;;;;;;5081210;28;20193;-85
2021/03/17 13:09:52;;;;;;;2.35;2.00;;;8.50;99.90;;;;;;5077182;28;20340;-81
2021/03/17 13:12:19;;;;;;;2.95;1.92;;;8.60;99.90;;;;;;5082500;28;20537;-83
2021/03/17 13:14:45;;;;;;;4.40;1.88;;;8.60;99.90;;;;;;5083795;28;20283;-85